Time;durP1;ratioP1;P1;durP2;ratioP2;P2;SDS_P1;SDS_P2;PMS_P1;PMS_P2;Temp;Humidity;BMP_temperature;BMP_pressure;BME280_temperature;BME280_humidity;BME280_pressure;Samples;Min_cycle;Max_cycle;Signal;HPM_P1;HPM_P2
2022/10/12 00:02:44;;;;;;;6.65;4.63;;;;;;;7.96;65.65;102379.03;4859283;29;20040;-92
2022/10/12 00:05:17;;;;;;;7.10;4.50;;;;;;;7.89;66.22;102361.53;4859785;29;20061;-91
2022/10/12 00:07:48;;;;;;;8.25;4.43;;;;;;;7.90;66.67;102371.16;4845926;29;20084;-93
2022/10/12 00:10:19;;;;;;;11.32;5.32;;;;;;;8.22;66.04;102423.69;4843051;29;20027;-91
2022/10/12 00:12:45;;;;;;;8.20;5.13;;;;;;;7.82;65.94;102376.44;4851222;29;20014;-92
2022/10/12 00:15:16;;;;;;;10.48;4.55;;;;;;;7.73;66.21;102363.31;4838004;29;20052;-94
2022/10/12 00:17:43;;;;;;;;;;;;;;;8.24;64.25;102424.53;4847657;29;20042;-91
2022/10/12 00:20:09;;;;;;;7.25;4.75;;;;;;;7.88;66.96;102389.63;4861046;29;19979;-93
2022/10/12 00:22:35;;;;;;;12.63;5.45;;;;;;;7.64;66.29;102356.34;4844822;29;20056;-93
2022/10/12 00:25:17;;;;;;;6.72;4.28;;;;;;;7.85;66.67;102408.03;4861366;29;20057;-93
2022/10/12 00:27:45;;;;;;;8.40;4.70;;;;;;;7.33;67.38;102367.84;4861450;29;20033;-92
2022/10/12 00:30:15;;;;;;;11.60;5.20;;;;;;;7.35;67.77;102381.88;4845521;29;20062;-94
2022/10/12 00:32:44;;;;;;;6.85;4.60;;;;;;;7.20;67.79;102361.72;4844320;29;20090;-95
2022/10/12 00:35:10;;;;;;;8.57;5.40;;;;;;;7.25;67.61;102367.00;4843606;29;20086;-94
2022/10/12 00:37:37;;;;;;;9.15;5.18;;;;;;;7.29;67.45;102366.97;4860460;29;20054;-93
2022/10/12 00:40:09;;;;;;;10.10;4.70;;;;;;;7.46;67.46;102389.72;4844759;29;20079;-94
2022/10/12 00:42:35;;;;;;;6.32;4.95;;;;;;;7.33;67.06;102366.09;4846559;29;20046;-94
2022/10/12 00:45:01;;;;;;;7.65;4.50;;;;;;;7.29;67.08;102366.09;4890181;29;20033;-92
2022/10/12 00:47:37;;;;;;;7.95;4.75;;;;;;;7.37;67.59;102375.75;4900387;29;20060;-91
2022/10/12 00:50:20;;;;;;;8.98;5.20;;;;;;;7.38;67.01;102371.34;4898970;29;20033;-93
2022/10/12 00:53:05;;;;;;;8.07;4.97;;;;;;;7.36;66.78;102370.47;4895178;29;20037;-93
2022/10/12 00:55:37;;;;;;;8.32;4.72;;;;;;;7.63;67.92;102419.53;4895298;29;20100;-93
2022/10/12 00:58:06;;;;;;;6.97;4.90;;;;;;;7.31;67.58;102366.97;4897913;29;20024;-94
2022/10/12 01:00:32;;;;;;;9.30;5.05;;;;;;;7.29;67.76;102371.38;4896537;29;20080;-92
2022/10/12 01:02:58;;;;;;;8.38;5.22;;;;;;;7.29;68.66;102368.75;4896172;29;20037;-93
2022/10/12 01:05:23;;;;;;;8.50;5.07;;;;;;;7.35;67.61;102382.75;4912376;29;20036;-94
2022/10/12 01:07:49;;;;;;;11.25;5.03;;;;;;;7.30;68.30;102373.97;4894003;29;20040;-94
2022/10/12 01:10:16;;;;;;;9.25;4.82;;;;;;;7.32;68.41;102376.59;4893664;29;20084;-90
2022/10/12 01:12:44;;;;;;;8.18;4.68;;;;;;;7.57;68.76;102424.81;4915693;29;20020;-92
2022/10/12 01:15:12;;;;;;;8.35;5.00;;;;;;;7.45;68.51;102416.94;4916352;29;20052;-92
2022/10/12 01:17:53;;;;;;;7.70;4.35;;;;;;;7.53;68.46;102416.03;4886633;29;20059;-93
2022/10/12 01:20:34;;;;;;;9.03;5.10;;;;;;;7.62;68.08;102404.63;4901591;29;20060;-90
2022/10/12 01:23:30;;;;;;;8.95;4.90;;;;;;;7.64;68.04;102405.47;4918440;29;20051;-92
2022/10/12 01:26:15;;;;;;;8.13;4.60;;;;;;;7.52;69.24;102398.50;4907849;29;20032;-92
2022/10/12 01:28:50;;;;;;;7.15;4.43;;;;;;;7.34;68.84;102346.78;4903156;29;20029;-91
2022/10/12 01:31:34;;;;;;;6.43;4.18;;;;;;;7.73;68.19;102389.66;4901959;29;20035;-91
2022/10/12 01:34:16;;;;;;;7.35;3.72;;;;;;;7.75;67.86;102393.16;4918593;29;20023;-91
2022/10/12 01:36:53;;;;;;;6.63;4.63;;;;;;;7.76;68.35;102378.25;4896518;29;20029;-92
2022/10/12 01:39:20;;;;;;;6.95;4.30;;;;;;;7.64;68.26;102390.56;4893958;29;20048;-93
2022/10/12 01:41:59;;;;;;;7.88;4.22;;;;;;;7.26;68.11;102327.50;4897315;29;20045;-91
2022/10/12 01:44:26;;;;;;;5.20;4.40;;;;;;;7.23;68.51;102322.28;4901617;29;20124;-93
2022/10/12 01:46:54;;;;;;;11.23;5.20;;;;;;;7.25;68.87;102331.03;4918249;29;20047;-91
2022/10/12 01:49:27;;;;;;;7.60;4.18;;;;;;;7.24;68.92;102323.16;4902297;29;20028;-91
2022/10/12 01:52:00;;;;;;;7.60;5.03;;;;;;;7.53;69.07;102376.56;4884838;29;20057;-90
2022/10/12 01:54:34;;;;;;;9.18;5.13;;;;;;;7.50;68.69;102373.94;4901462;29;20021;-92
2022/10/12 01:57:16;;;;;;;6.15;5.00;;;;;;;7.22;68.90;102317.00;4898206;29;20037;-93
2022/10/12 02:00:04;;;;;;;9.73;4.85;;;;;;;7.52;68.41;102369.56;4899288;29;20063;-93
2022/10/12 02:03:05;;;;;;;5.85;5.22;;;;;;;7.19;67.97;102311.78;4890049;29;20583;-93
2022/10/12 02:05:43;;;;;;;7.97;5.00;;;;;;;7.47;68.48;102362.56;4848419;29;20092;-94
2022/10/12 02:08:30;;;;;;;7.95;5.18;;;;;;;7.40;68.96;102359.06;4894610;29;20036;-92
2022/10/12 02:11:17;;;;;;;13.35;5.22;;;;;;;7.07;68.64;102308.28;4893081;29;20032;-94
2022/10/12 02:13:51;;;;;;;6.72;4.35;;;;;;;6.95;69.37;102315.31;4912658;29;20245;-93
2022/10/12 02:16:21;;;;;;;11.18;5.45;;;;;;;6.85;70.09;102307.47;4913096;29;20113;-92
2022/10/12 02:18:51;;;;;;;9.30;5.15;;;;;;;7.07;70.76;102362.63;4895413;29;20033;-90
2022/10/12 02:21:26;;;;;;;7.28;4.75;;;;;;;6.82;71.72;102306.56;4894349;29;20036;-95
2022/10/12 02:23:52;;;;;;;13.55;5.03;;;;;;;6.88;70.22;102310.06;4893289;29;20033;-91
2022/10/12 02:26:20;;;;;;;6.93;5.10;;;;;;;6.94;70.81;102310.94;4891666;29;20489;-94
2022/10/12 02:28:47;;;;;;;7.10;4.78;;;;;;;6.94;69.81;102303.03;4895521;29;20032;-91
2022/10/12 02:31:34;;;;;;;5.88;5.15;;;;;;;6.91;69.89;102282.91;4895264;29;20132;-94
2022/10/12 02:34:18;;;;;;;6.57;5.05;;;;;;;7.16;69.09;102352.97;4882680;29;20033;-93
2022/10/12 02:36:50;;;;;;;10.13;5.13;;;;;;;6.95;69.96;102338.97;4911143;29;20052;-94
2022/10/12 02:39:22;;;;;;;8.27;5.47;;;;;;;6.67;70.50;102296.97;4895048;29;20047;-92
2022/10/12 02:41:56;;;;;;;9.02;5.13;;;;;;;7.03;70.72;102348.59;4893070;29;20285;-92
2022/10/12 02:44:28;;;;;;;9.38;5.15;;;;;;;6.72;70.59;102300.47;4890824;29;20032;-93
2022/10/12 02:46:56;;;;;;;7.37;5.60;;;;;;;6.81;71.58;102320.59;4862170;29;20066;-94
2022/10/12 02:49:27;;;;;;;10.70;5.70;;;;;;;6.80;70.48;102326.72;4892398;29;20032;-94
2022/10/12 02:51:55;;;;;;;8.70;5.22;;;;;;;6.65;70.50;102303.94;4914842;29;20020;-92
2022/10/12 02:54:21;;;;;;;10.07;5.70;;;;;;;6.60;70.73;102296.06;4896124;29;20177;-94
2022/10/12 02:56:47;;;;;;;7.18;5.43;;;;;;;6.54;70.96;102293.44;4893953;29;20064;-94
2022/10/12 02:59:14;;;;;;;9.07;5.75;;;;;;;6.58;71.97;102302.22;4877082;29;20025;-93
2022/10/12 03:01:40;;;;;;;6.55;5.57;;;;;;;6.48;71.42;102293.47;4895369;29;20100;-93
2022/10/12 03:04:05;;;;;;;10.70;5.90;;;;;;;6.75;71.99;102338.97;4890890;29;20025;-95
2022/10/12 03:06:31;;;;;;;8.77;5.50;;;;;;;6.45;71.83;102290.81;4890149;29;20025;-94
2022/10/12 03:08:57;;;;;;;13.50;7.25;;;;;;;6.49;70.85;102304.84;4888546;29;20025;-93
2022/10/12 03:11:22;;;;;;;13.80;6.40;;;;;;;6.47;71.49;102317.09;4877754;29;20044;-95
2022/10/12 03:13:54;;;;;;;10.75;5.82;;;;;;;6.18;71.98;102282.91;4890422;29;20029;-91
2022/10/12 03:16:21;;;;;;;11.02;6.00;;;;;;;6.19;72.63;102277.66;4888387;29;20044;-93
2022/10/12 03:18:46;;;;;;;9.65;6.95;;;;;;;6.17;71.66;102281.19;4887619;29;20025;-91
2022/10/12 03:21:13;;;;;;;10.25;6.25;;;;;;;6.14;71.18;102269.78;4892343;29;20052;-93
2022/10/12 03:23:39;;;;;;;8.60;5.75;;;;;;;6.20;71.38;102274.19;4891048;29;20032;-93
2022/10/12 03:26:05;;;;;;;8.45;5.45;;;;;;;6.46;71.05;102304.81;4891828;29;20044;-94
2022/10/12 03:28:31;;;;;;;7.55;5.20;;;;;;;6.39;71.18;102298.72;4887989;29;20033;-94
2022/10/12 03:30:56;;;;;;;7.65;5.85;;;;;;;6.26;71.57;102279.44;4889973;29;20037;-92
2022/10/12 03:33:22;;;;;;;8.40;5.68;;;;;;;6.49;73.71;102324.09;4891000;29;20029;-93
2022/10/12 03:35:47;;;;;;;10.25;5.78;;;;;;;6.16;71.88;102272.44;4889903;29;20031;-94
2022/10/12 03:38:14;;;;;;;9.38;5.70;;;;;;;6.30;71.52;102310.09;4888875;29;20072;-94
2022/10/12 03:40:39;;;;;;;6.90;5.68;;;;;;;6.14;74.06;102280.28;4891985;29;20017;-94
2022/10/12 03:43:05;;;;;;;8.98;5.63;;;;;;;6.07;72.60;102278.53;4893796;29;20081;-93
2022/10/12 03:45:31;;;;;;;8.82;6.03;;;;;;;6.10;72.28;102293.41;4910137;29;20039;-95
2022/10/12 03:47:57;;;;;;;6.38;5.38;;;;;;;6.16;71.44;102310.94;4892655;29;20242;-92
2022/10/12 03:50:22;;;;;;;8.25;5.20;;;;;;;6.14;72.25;102310.91;4890666;29;20044;-92
2022/10/12 03:52:47;;;;;;;7.78;5.78;;;;;;;6.10;71.03;102299.53;4891456;29;20170;-94
2022/10/12 03:55:13;;;;;;;9.95;5.93;;;;;;;6.18;71.64;102323.19;4892901;29;20067;-91
2022/10/12 03:57:38;;;;;;;9.68;6.03;;;;;;;5.99;72.43;102305.66;4907496;29;20079;-94
2022/10/12 04:00:05;;;;;;;12.73;6.90;;;;;;;5.89;72.46;102297.72;4892749;29;20024;-94
2022/10/12 04:02:30;;;;;;;9.48;5.90;;;;;;;6.00;72.36;102313.50;4892578;29;20096;-93
2022/10/12 04:04:56;;;;;;;10.73;6.00;;;;;;;5.96;72.80;102313.50;4889595;29;20064;-94
2022/10/12 04:07:21;;;;;;;10.30;6.07;;;;;;;5.88;72.48;102305.59;4890165;29;20044;-93
2022/10/12 04:09:46;;;;;;;11.57;6.40;;;;;;;5.89;72.63;102305.59;4895249;29;20040;-90
2022/10/12 04:12:12;;;;;;;8.43;5.97;;;;;;;5.99;72.53;102311.78;4894934;29;20028;-94
2022/10/12 04:14:38;;;;;;;8.35;6.05;;;;;;;5.99;71.97;102305.66;4892914;29;20044;-94
2022/10/12 04:17:04;;;;;;;7.82;5.95;;;;;;;5.97;72.49;102307.38;4909233;29;20472;-94
2022/10/12 04:19:29;;;;;;;9.90;5.55;;;;;;;5.80;74.37;102278.44;4874116;29;20036;-93
2022/10/12 04:21:54;;;;;;;8.48;5.38;;;;;;;5.90;72.24;102295.97;4887038;29;20036;-95
2022/10/12 04:24:19;;;;;;;7.78;5.60;;;;;;;5.96;71.90;102301.25;4892443;29;20040;-93
2022/10/12 04:26:45;;;;;;;10.23;5.82;;;;;;;5.96;71.62;102311.75;4891231;29;20537;-94
2022/10/12 04:29:12;;;;;;;12.35;5.70;;;;;;;5.97;71.66;102308.28;4889533;29;20039;-95
2022/10/12 04:31:37;;;;;;;8.88;5.60;;;;;;;6.02;71.84;102311.78;4887148;29;20064;-93
2022/10/12 04:34:02;;;;;;;8.23;5.60;;;;;;;5.97;72.03;102307.38;4893908;29;20021;-94
2022/10/12 04:36:27;;;;;;;11.75;6.03;;;;;;;5.96;72.30;102305.63;4889766;29;20092;-95
2022/10/12 04:38:53;;;;;;;8.25;5.15;;;;;;;5.89;72.46;102307.34;4890425;29;20140;-94
2022/10/12 04:41:19;;;;;;;8.32;5.25;;;;;;;5.88;72.46;102313.47;4887847;29;20052;-93
2022/10/12 04:43:44;;;;;;;7.97;5.68;;;;;;;5.79;73.03;102295.06;4886271;29;20240;-95
2022/10/12 04:46:10;;;;;;;9.35;6.35;;;;;;;5.82;72.71;102310.81;4883081;29;20032;-94
2022/10/12 04:48:35;;;;;;;8.98;6.32;;;;;;;5.78;73.08;102296.81;4887157;29;20096;-93
2022/10/12 04:51:00;;;;;;;12.20;5.90;;;;;;;5.82;71.59;102310.81;4884495;29;20472;-91
2022/10/12 04:53:25;;;;;;;9.05;6.45;;;;;;;5.77;72.74;102309.91;4881857;29;20153;-94
2022/10/12 04:55:51;;;;;;;9.55;6.15;;;;;;;5.79;72.65;102313.44;4896339;29;20507;-93
2022/10/12 04:58:16;;;;;;;9.93;5.88;;;;;;;5.71;72.14;102312.53;4882442;29;20029;-93
2022/10/12 05:00:41;;;;;;;11.98;6.65;;;;;;;5.72;72.71;102322.16;4878846;29;20029;-94
2022/10/12 05:03:07;;;;;;;9.88;5.85;;;;;;;5.69;72.99;102314.25;4901080;29;20064;-92
2022/10/12 05:05:33;;;;;;;9.00;5.97;;;;;;;5.63;73.34;102321.22;4902643;29;20068;-94
2022/10/12 05:07:59;;;;;;;12.00;6.22;;;;;;;5.65;72.76;102316.00;4882019;29;20533;-93
2022/10/12 05:10:25;;;;;;;10.90;6.95;;;;;;;5.61;73.62;102312.50;4879758;29;20032;-93
2022/10/12 05:12:50;;;;;;;11.25;6.78;;;;;;;5.64;73.59;102314.22;4883073;29;20037;-95
2022/10/12 05:15:15;;;;;;;10.43;6.35;;;;;;;5.54;73.07;102308.06;4878832;29;20157;-94
2022/10/12 05:17:40;;;;;;;9.68;6.25;;;;;;;5.54;72.77;102308.06;4883672;29;20035;-93
2022/10/12 05:20:07;;;;;;;10.23;6.22;;;;;;;5.56;74.85;102308.97;4882426;29;20032;-94
2022/10/12 05:22:32;;;;;;;7.95;6.30;;;;;;;5.58;73.25;102295.84;4886695;29;20036;-93
2022/10/12 05:24:57;;;;;;;11.57;6.55;;;;;;;5.62;73.76;102298.50;4884072;29;20210;-93
2022/10/12 05:27:22;;;;;;;11.43;6.88;;;;;;;5.47;72.47;102268.72;4885809;29;20033;-93
2022/10/12 05:29:48;;;;;;;10.77;6.68;;;;;;;5.58;74.72;102285.38;4886286;29;20032;-93
2022/10/12 05:32:14;;;;;;;7.38;6.05;;;;;;;5.44;74.93;102277.44;4886030;29;20275;-93
2022/10/12 05:34:41;;;;;;;7.57;5.30;;;;;;;5.28;74.28;102252.03;4882754;29;20016;-94
2022/10/12 05:37:06;;;;;;;9.90;5.82;;;;;;;5.56;73.71;102295.00;4887103;29;20041;-94
2022/10/12 05:39:33;;;;;;;7.55;4.65;;;;;;;5.15;72.06;102226.63;4888072;29;20154;-92
2022/10/12 05:42:00;;;;;;;9.73;5.32;;;;;;;5.10;72.87;102237.97;4905595;29;20072;-92
2022/10/12 05:44:25;;;;;;;8.60;5.20;;;;;;;5.27;72.51;102279.09;4887528;29;20117;-95
2022/10/12 05:46:50;;;;;;;7.68;5.75;;;;;;;5.29;74.88;102273.00;4882949;29;20116;-93
2022/10/12 05:49:16;;;;;;;7.72;5.07;;;;;;;5.45;73.77;102296.66;4879288;29;20028;-94
2022/10/12 05:51:41;;;;;;;7.47;4.80;;;;;;;5.28;72.28;102259.91;4885140;29;20448;-94
2022/10/12 05:54:08;;;;;;;6.53;4.80;;;;;;;5.18;74.56;102234.50;4895078;29;20068;-93
2022/10/12 05:56:34;;;;;;;9.15;5.57;;;;;;;5.45;74.34;102273.06;4889550;29;20167;-94
2022/10/12 05:59:00;;;;;;;9.65;5.80;;;;;;;5.39;73.84;102273.91;4862933;29;20558;-93
2022/10/12 06:01:25;;;;;;;6.60;5.18;;;;;;;5.25;72.54;102255.50;4900000;29;20032;-93
2022/10/12 06:03:50;;;;;;;8.60;6.07;;;;;;;5.21;72.50;102256.34;4898901;29;20028;-93
2022/10/12 06:06:16;;;;;;;7.10;5.57;;;;;;;5.34;71.84;102259.91;4882216;29;20032;-92
2022/10/12 06:08:41;;;;;;;6.70;5.32;;;;;;;5.45;71.84;102275.69;4879973;29;20028;-94
2022/10/12 06:11:07;;;;;;;8.88;5.30;;;;;;;5.58;72.03;102285.38;4897914;29;20596;-94
2022/10/12 06:13:33;;;;;;;10.35;5.22;;;;;;;5.61;72.12;102288.00;4887813;29;20278;-90
2022/10/12 06:15:58;;;;;;;8.10;5.28;;;;;;;5.59;72.18;102274.88;4882534;29;20049;-94
2022/10/12 06:18:24;;;;;;;9.07;5.40;;;;;;;5.45;72.18;102239.84;4884912;29;20112;-92
2022/10/12 06:20:51;;;;;;;6.80;5.18;;;;;;;5.50;72.10;102248.63;4894779;29;20073;-91
2022/10/12 06:23:20;;;;;;;8.43;5.78;;;;;;;5.53;72.28;102242.50;4913946;29;20108;-91
2022/10/12 06:25:46;;;;;;;8.85;5.65;;;;;;;5.63;72.40;102249.53;4893815;29;20151;-93
2022/10/12 06:28:14;;;;;;;6.93;5.45;;;;;;;5.78;71.99;102267.94;4903669;29;20058;-93
2022/10/12 06:30:40;;;;;;;9.10;5.53;;;;;;;5.74;72.00;102254.81;4887558;29;20033;-93
2022/10/12 06:33:05;;;;;;;8.88;5.85;;;;;;;5.82;72.21;102261.81;4883548;29;20024;-94
2022/10/12 06:35:31;;;;;;;8.57;5.88;;;;;;;5.94;71.74;102278.50;4880207;29;20029;-94
2022/10/12 06:37:56;;;;;;;10.00;6.10;;;;;;;5.87;71.92;102269.69;4876633;29;20501;-94
2022/10/12 06:40:22;;;;;;;9.20;5.95;;;;;;;5.89;72.52;102284.59;4898107;29;20033;-93
2022/10/12 06:42:49;;;;;;;11.63;6.05;;;;;;;5.80;73.55;102284.56;4879578;29;20035;-94
2022/10/12 06:45:14;;;;;;;8.68;6.00;;;;;;;5.71;74.32;102289.78;4881788;29;20043;-94
2022/10/12 06:47:39;;;;;;;8.13;6.07;;;;;;;5.62;74.76;102280.13;4881717;29;20032;-93
2022/10/12 06:50:06;;;;;;;10.13;6.15;;;;;;;5.71;74.91;102286.28;4881602;29;20024;-93
2022/10/12 06:52:31;;;;;;;9.95;6.47;;;;;;;5.87;74.86;102288.06;4881588;29;20067;-94
2022/10/12 06:54:57;;;;;;;11.75;6.60;;;;;;;5.98;74.78;102296.91;4896184;29;20020;-94
2022/10/12 06:57:22;;;;;;;10.27;6.20;;;;;;;6.13;74.69;102298.66;4885350;29;20575;-92
2022/10/12 06:59:47;;;;;;;10.70;6.50;;;;;;;6.28;74.33;102289.94;4884492;29;20029;-95
2022/10/12 07:02:13;;;;;;;11.02;6.63;;;;;;;6.38;74.73;102283.81;4890879;29;20032;-95
2022/10/12 07:04:38;;;;;;;8.85;6.80;;;;;;;6.60;74.42;102298.69;4890477;29;20037;-93
2022/10/12 07:07:04;;;;;;;8.68;6.65;;;;;;;6.69;74.55;102292.56;4872236;29;20037;-94
2022/10/12 07:09:30;;;;;;;11.95;7.35;;;;;;;6.76;74.58;102293.41;4908040;29;20032;-95
2022/10/12 07:11:55;;;;;;;12.75;6.70;;;;;;;6.86;73.87;102297.81;4890736;29;20029;-94
2022/10/12 07:14:21;;;;;;;13.32;7.43;;;;;;;6.86;74.15;102305.69;4893814;29;20129;-94
2022/10/12 07:16:46;;;;;;;17.55;7.78;;;;;;;6.84;74.35;102287.28;4884824;29;20128;-87
2022/10/12 07:19:12;;;;;;;10.85;6.93;;;;;;;6.96;74.57;102304.81;4882711;29;20028;-89
2022/10/12 07:21:37;;;;;;;14.40;8.18;;;;;;;6.90;74.78;102281.13;4881860;29;20029;-89
2022/10/12 07:24:03;;;;;;;14.85;7.78;;;;;;;7.00;74.74;102280.25;4879463;29;20021;-90
2022/10/12 07:26:28;;;;;;;14.35;8.52;;;;;;;7.02;74.93;102278.50;4893541;29;20088;-91
2022/10/12 07:28:54;;;;;;;13.40;8.52;;;;;;;7.03;75.56;102274.09;4879917;29;20021;-89
2022/10/12 07:31:19;;;;;;;18.58;8.75;;;;;;;7.00;74.70;102274.13;4875812;29;20032;-90
2022/10/12 07:33:44;;;;;;;16.55;9.27;;;;;;;6.93;75.38;102264.50;4879751;29;20029;-89
2022/10/12 07:36:10;;;;;;;13.85;8.75;;;;;;;6.89;75.08;102245.22;4878422;29;20032;-90
2022/10/12 07:38:35;;;;;;;17.83;8.60;;;;;;;7.04;75.23;102263.59;4882336;29;20049;-89
2022/10/12 07:41:01;;;;;;;13.00;8.20;;;;;;;7.13;74.76;102270.56;4881643;29;20036;-89
2022/10/12 07:43:28;;;;;;;15.10;10.10;;;;;;;7.24;76.88;102284.56;4882118;29;20061;-89
2022/10/12 07:45:53;;;;;;;15.77;9.32;;;;;;;7.17;75.55;102264.41;4878678;29;20069;-89
2022/10/12 07:48:19;;;;;;;16.38;9.15;;;;;;;7.27;75.53;102289.81;4878691;29;20057;-90
2022/10/12 07:50:44;;;;;;;25.02;10.40;;;;;;;7.25;75.47;102278.41;4891324;29;20033;-91
2022/10/12 07:53:10;;;;;;;19.02;9.73;;;;;;;7.30;75.74;102274.00;4898512;29;20029;-89
2022/10/12 07:55:35;;;;;;;21.73;11.25;;;;;;;7.43;75.75;102285.38;4882402;29;20475;-90
2022/10/12 07:58:01;;;;;;;19.52;10.13;;;;;;;7.64;74.56;102292.28;4878997;29;20586;-89
2022/10/12 08:00:27;;;;;;;22.05;10.90;;;;;;;7.77;75.26;102277.31;4886830;29;20028;-89
2022/10/12 08:02:53;;;;;;;18.98;10.20;;;;;;;8.49;74.52;102261.06;4882079;29;20036;-89
2022/10/12 08:05:20;;;;;;;16.58;10.82;;;;;;;9.15;72.69;102275.31;4881846;29;20469;-88
2022/10/12 08:07:46;;;;;;;20.15;11.25;;;;;;;9.79;70.62;102286.84;4897236;29;20029;-87
2022/10/12 08:10:12;;;;;;;21.98;11.65;;;;;;;10.39;69.06;102288.59;4898478;29;20384;-88
2022/10/12 08:12:37;;;;;;;20.20;10.38;;;;;;;10.57;67.60;102285.66;4897424;29;20080;-89
2022/10/12 08:15:02;;;;;;;21.30;10.70;;;;;;;11.01;67.08;102286.66;4881536;29;20031;-89
2022/10/12 08:17:28;;;;;;;19.33;10.68;;;;;;;11.24;65.48;102279.16;4898239;29;20107;-88
2022/10/12 08:19:53;;;;;;;18.63;10.63;;;;;;;11.81;64.53;102290.34;4878518;29;20032;-88
2022/10/12 08:22:18;;;;;;;23.52;11.10;;;;;;;12.42;62.45;102287.16;4895841;29;20115;-88
2022/10/12 08:24:43;;;;;;;19.90;10.95;;;;;;;12.98;60.20;102283.94;4881656;29;20028;-89
2022/10/12 08:27:09;;;;;;;23.92;12.13;;;;;;;13.63;59.67;102280.34;4880020;29;20025;-90
2022/10/12 08:29:34;;;;;;;22.48;10.77;;;;;;;14.42;56.87;102269.84;4878622;29;20070;-89
2022/10/12 08:32:00;;;;;;;19.70;10.93;;;;;;;15.26;55.16;102266.94;4876179;29;20107;-88
2022/10/12 08:34:26;;;;;;;22.95;11.27;;;;;;;15.84;52.48;102281.66;4890944;29;20371;-88
2022/10/12 08:36:52;;;;;;;24.48;11.80;;;;;;;16.60;51.28;102259.88;4881114;29;20084;-90
2022/10/12 08:39:17;;;;;;;21.92;10.43;;;;;;;17.43;48.75;102266.88;4896895;29;20028;-89
2022/10/12 08:42:15;;;;;;;20.38;10.68;;;;;;;18.22;50.06;102267.59;4879734;29;20103;-88
2022/10/12 08:45:13;;;;;;;21.45;11.20;;;;;;;18.88;46.38;102274.97;4881010;29;20039;-88
2022/10/12 08:47:42;;;;;;;19.65;10.88;;;;;;;19.24;44.36;102272.19;4880727;29;20492;-89
2022/10/12 08:50:28;;;;;;;16.35;10.05;;;;;;;19.95;42.96;102259.28;4885678;29;20031;-88
2022/10/12 08:53:00;;;;;;;19.52;10.45;;;;;;;19.91;42.79;102287.28;4894802;29;20481;-89
2022/10/12 08:55:37;;;;;;;17.13;10.00;;;;;;;20.49;43.04;102291.16;4880877;29;20123;-89
2022/10/12 08:58:02;;;;;;;21.83;11.18;;;;;;;20.74;40.91;102275.28;4881209;29;20025;-90
2022/10/12 09:00:32;;;;;;;15.60;9.15;;;;;;;21.14;40.02;102268.34;4880843;29;20441;-90
2022/10/12 09:03:12;;;;;;;21.63;9.95;;;;;;;20.81;41.78;102275.78;4881138;29;20512;-91
2022/10/12 09:05:45;;;;;;;18.77;10.65;;;;;;;21.82;38.34;102275.75;4897852;29;20025;-90
2022/10/12 09:08:27;;;;;;;15.73;9.27;;;;;;;22.26;40.49;102263.91;4877649;29;20446;-90
2022/10/12 09:11:15;;;;;;;19.50;9.50;;;;;;;22.99;37.12;102273.31;4894821;29;20038;-92
2022/10/12 09:14:00;;;;;;;20.85;9.50;;;;;;;23.84;36.46;102286.13;4859141;29;20032;-90
2022/10/12 09:16:39;;;;;;;17.77;10.23;;;;;;;23.31;36.17;102287.25;4896332;29;20036;-90
2022/10/12 09:19:16;;;;;;;20.08;10.80;;;;;;;24.21;37.83;102296.91;4877428;29;20033;-90
2022/10/12 09:21:45;;;;;;;18.88;11.00;;;;;;;23.88;34.59;102284.06;4872594;29;20617;-90
2022/10/12 09:24:38;;;;;;;22.90;10.27;;;;;;;22.25;39.68;102297.19;4881385;29;20377;-93
2022/10/12 09:27:15;;;;;;;18.00;11.43;;;;;;;21.10;40.44;102284.78;4879294;29;20039;-91
2022/10/12 09:29:45;;;;;;;19.85;11.45;;;;;;;20.68;39.84;102289.09;4882163;29;20085;-91
2022/10/12 09:32:21;;;;;;;17.77;11.23;;;;;;;20.76;41.06;102284.13;4898513;29;20033;-92
2022/10/12 09:34:47;;;;;;;20.48;11.32;;;;;;;21.79;38.90;102289.41;4881761;29;20024;-91
2022/10/12 09:37:18;;;;;;;19.92;11.95;;;;;;;23.41;36.02;102273.00;4896909;29;20041;-91
2022/10/12 09:39:43;;;;;;;18.52;10.35;;;;;;;24.29;33.90;102272.84;4898032;29;20556;-90
2022/10/12 09:42:10;;;;;;;19.30;10.90;;;;;;;24.23;33.63;102265.22;4880426;29;20032;-91
2022/10/12 09:44:39;;;;;;;20.85;10.95;;;;;;;24.01;34.26;102273.19;4881491;29;20040;-90
2022/10/12 09:47:26;;;;;;;16.77;10.95;;;;;;;24.47;35.30;102276.03;4877566;29;20044;-90
2022/10/12 09:49:56;;;;;;;21.73;10.90;;;;;;;25.05;32.76;102284.19;4881559;29;20051;-91
2022/10/12 09:52:28;;;;;;;15.10;10.07;;;;;;;24.61;33.33;102273.13;4880513;29;20036;-91
2022/10/12 09:54:57;;;;;;;23.17;11.00;;;;;;;25.18;32.66;102276.84;4898239;29;20112;-90
2022/10/12 09:57:35;;;;;;;18.83;9.88;;;;;;;25.96;31.71;102278.66;4881253;29;20376;-91
2022/10/12 10:00:05;;;;;;;21.10;10.82;;;;;;;26.95;29.02;102282.94;4881508;29;20508;-91
2022/10/12 10:02:31;;;;;;;20.98;10.75;;;;;;;27.53;27.95;102271.56;4880699;29;20032;-91
2022/10/12 10:05:23;;;;;;;19.02;10.85;;;;;;;28.05;29.70;102272.28;4881215;29;20029;-91
2022/10/12 10:07:48;;;;;;;18.77;10.27;;;;;;;29.31;26.32;102269.47;4897915;29;20032;-92
2022/10/12 10:10:22;;;;;;;18.88;10.18;;;;;;;29.89;26.33;102252.81;4880826;29;20028;-91
2022/10/12 10:12:55;;;;;;;17.73;11.18;;;;;;;29.53;26.04;102262.78;4880591;29;20548;-90
2022/10/12 10:15:32;;;;;;;23.00;10.93;;;;;;;29.38;27.01;102256.97;4896837;29;20032;-92
2022/10/12 10:18:00;;;;;;;16.35;10.95;;;;;;;29.18;24.89;102235.22;4897104;29;20160;-91
2022/10/12 10:20:41;;;;;;;20.27;10.15;;;;;;;29.09;27.02;102238.00;4879653;29;20396;-90
2022/10/12 10:23:41;;;;;;;20.30;10.65;;;;;;;29.37;27.27;102256.09;4897146;29;20043;-91
2022/10/12 10:26:15;;;;;;;18.88;10.45;;;;;;;28.86;27.42;102251.06;4881061;29;20031;-91
2022/10/12 10:28:55;;;;;;;20.33;11.30;;;;;;;29.08;26.91;102250.75;4881889;29;20484;-92
2022/10/12 10:31:26;;;;;;;17.88;11.05;;;;;;;29.38;25.27;102248.78;4896788;29;20032;-92
2022/10/12 10:34:08;;;;;;;14.88;10.57;;;;;;;30.41;26.14;102259.34;4880572;29;20526;-92
2022/10/12 10:36:38;;;;;;;15.82;10.05;;;;;;;29.58;24.63;102255.88;4880784;29;20035;-92
2022/10/12 10:39:06;;;;;;;17.80;10.40;;;;;;;29.62;24.39;102238.22;4881148;29;20464;-89
2022/10/12 10:41:37;;;;;;;17.17;10.40;;;;;;;28.51;25.89;102249.84;4896838;29;20040;-91
2022/10/12 10:44:04;;;;;;;18.08;10.43;;;;;;;29.37;24.56;102249.78;4898681;29;20540;-91
2022/10/12 10:46:52;;;;;;;15.35;9.73;;;;;;;30.70;25.98;102266.41;4881903;29;20520;-95
2022/10/12 10:50:07;;;;;;;17.60;9.23;;;;;;;32.02;24.05;102253.25;4882345;29;20392;-94
2022/10/12 10:52:35;;;;;;;15.85;9.15;;;;;;;31.75;21.69;102238.78;4880559;29;20036;-94
2022/10/12 10:55:25;;;;;;;12.90;8.77;;;;;;;31.47;24.60;102251.88;4882708;29;20032;-93
2022/10/12 10:58:00;;;;;;;16.77;10.30;;;;;;;31.25;22.53;102249.72;4881026;29;20036;-89
2022/10/12 11:00:32;;;;;;;14.48;9.43;;;;;;;30.37;22.79;102236.09;4897842;29;20024;-95
2022/10/12 11:03:04;;;;;;;15.55;8.85;;;;;;;30.21;23.69;102235.94;4897427;29;20040;-95
2022/10/12 11:05:35;;;;;;;15.73;9.32;;;;;;;29.00;25.16;102231.56;4880273;29;20548;-94
2022/10/12 11:08:08;;;;;;;13.65;8.38;;;;;;;28.78;25.32;102230.06;4897587;29;20033;-94
2022/10/12 11:10:43;;;;;;;14.80;8.07;;;;;;;28.45;26.43;102220.50;4880600;29;20024;-93
2022/10/12 11:13:18;;;;;;;13.80;8.45;;;;;;;28.21;27.05;102215.47;4877508;29;20048;-94
2022/10/12 11:15:53;;;;;;;16.83;8.27;;;;;;;28.59;26.56;102213.75;4894777;29;20113;-95
2022/10/12 11:21:51;;;;;;;12.75;7.63;;;;;;;28.41;27.42;102211.78;4903650;29;20048;-94
2022/10/12 11:24:23;;;;;;;9.45;7.10;;;;;;;28.24;25.80;102212.47;4891044;29;20044;-94
2022/10/12 11:27:11;;;;;;;12.60;7.70;;;;;;;27.36;26.99;102208.72;4882595;29;20366;-93
2022/10/12 11:29:37;;;;;;;12.10;7.57;;;;;;;26.60;27.29;102180.19;4883584;29;20029;-95
2022/10/12 11:32:28;;;;;;;12.27;6.85;;;;;;;26.70;26.92;102183.81;4882741;29;20035;-94
2022/10/12 11:38:29;;;;;;;10.80;6.07;;;;;;;27.50;26.58;102172.16;4863015;29;20064;-95
2022/10/12 11:41:02;;;;;;;11.00;5.80;;;;;;;27.36;25.99;102178.00;4832582;29;20045;-95
2022/10/12 11:43:52;;;;;;;13.88;6.30;;;;;;;26.05;27.62;102157.78;4847666;29;20371;-94
2022/10/12 11:46:25;;;;;;;11.45;5.95;;;;;;;25.11;29.03;102161.94;4844680;29;20064;-95